Current | Forecast
Updated: 5:00 AM JST on February 22, 2018
Observed at Nagoya / Chubu, Japan
Temperature 41°F
Windchill 34°F
Humidity 76%
Dew Point 34°F
Wind WNW at 14 mph
Pressure 30.09 in (Steady)
Conditions Clear
Visibility -
UV N/A
Clouds
Yesterday's Maximum 48°F
Yesterday's Minimum 41°F approx.
Yesterday's Heating Degree Days 20 approx.
Sunrise6:32 AM JST
Sunset5:41 PM JST
Moon Rise10:15 AM JST
Moon Set11:57 PM JST
Moon PhaseMoon Phase
Waxing Crescent
Raw METARMETAR RJGG 212000Z 30012KT CAVOK 05/01 Q1019 NOSIG


Monday
. High: 78° F.
Tuesday
. High: 75° F.
Wednesday
. High: 75° F.
Thursday
. High: 78° F.
Friday
. High: 80° F.
Saturday
. High: 75° F.
Sunday
. High: 77° F.
Monday
. High: 80° F.

Units: English | Metric

Find the Weather for any City, State or Zipcode, or Country:

U.S. State List | Severe Weather | Tropical Storms | Ski Conditions
United States | Canada | Central America | South America | Asia | Europe | Australia | Africa | Islands

Weather Underground

© Copyright 2018
The Weather Company, LLC